Latest Weather Observations for Flinders Reef

IDQ60801

Issued at 7:03 pm EST Monday 23 May 2022 (issued every 10 minutes, with the page automatically refreshed every 10 minutes)

About weather observations | Map of weather stations | Latest weather observations for QLD | Other Formats
Station Details ID: 200783 Name: FLINDERS REEF Lat: -17.72 Lon: 148.45 Height: 2.6 m
Data from the previous 72 hours. | See also: Recent months at Flinders Reef
Date/Time
EST
Temp
°C
App
Temp
°C
Dew
Point
°C
Rel
Hum
%
Delta-T
°C
Wind Press
QNH
hPa
Press
MSL
hPa
Rain since
9am
mm
Dir  Spd
km/h
Gust
km/h
Spd
kts
Gust
kts
23/07:00pm 25.5 - - - - SE 37 44 20 24 1014.5 1014.4 -
23/06:30pm 25.1 - - - - SE 43 50 23 27 1014.3 1014.2 -
23/06:00pm 25.3 - - - - SE 37 43 20 23 1013.8 1013.7 -
23/05:30pm 25.7 - - - - SE 35 39 19 21 1013.4 1013.3 -
23/05:00pm 25.7 - - - - SE 35 43 19 23 1013.2 1013.1 -
23/04:30pm 25.6 - - - - SE 35 39 19 21 1012.8 1012.7 -
23/04:00pm 25.7 - - - - SE 32 41 17 22 1012.7 1012.6 -
23/03:30pm 25.7 - - - - SE 32 37 17 20 1012.8 1012.7 -
23/03:00pm 25.7 - - - - SE 32 35 17 19 1012.8 1012.7 -
23/02:30pm 25.8 - - - - SSE 33 39 18 21 1012.8 1012.7 -
23/02:00pm 25.4 - - - - SSE 37 43 20 23 1012.8 1012.7 -
23/01:30pm 26.2 - - - - SE 28 32 15 17 1012.9 1012.8 -
23/01:00pm 24.5 - - - - ESE 32 35 17 19 1013.2 1013.1 -
23/12:30pm 25.6 - - - - ESE 30 35 16 19 1013.4 1013.3 -
23/12:00pm 25.5 - - - - SE 32 35 17 19 1013.7 1013.6 -
23/11:30am 25.8 - - - - SE 30 32 16 17 1014.0 1013.9 -
23/11:00am 26.1 - - - - SE 28 32 15 17 1014.4 1014.3 -
23/10:30am 26.2 - - - - SE 30 33 16 18 1014.6 1014.5 -
23/10:00am 26.1 - - - - SE 28 32 15 17 1014.8 1014.7 -
23/09:30am 25.8 - - - - SE 28 33 15 18 1014.8 1014.7 -
23/09:00am 26.1 - - - - ESE 32 35 17 19 1014.7 1014.6 -
23/08:30am 26.0 - - - - ESE 30 35 16 19 1014.4 1014.3 -
23/08:00am 25.6 - - - - SE 30 35 16 19 1014.0 1013.9 -
23/07:30am 25.9 - - - - SE 33 39 18 21 1013.7 1013.6 -
23/07:00am 26.0 - - - - SE 30 35 16 19 1013.5 1013.4 -
23/06:30am 25.9 - - - - SE 32 35 17 19 1013.3 1013.2 -
23/06:00am 25.3 - - - - ESE 32 37 17 20 1013.0 1012.9 -
23/05:30am 26.0 - - - - SSE 32 35 17 19 1012.7 1012.6 -
23/05:00am 25.9 - - - - SSE 33 39 18 21 1012.3 1012.2 -
23/04:30am 25.6 - - - - SE 32 37 17 20 1012.1 1012.0 -
23/04:00am 24.9 - - - - SE 32 35 17 19 1012.1 1012.0 -
23/03:30am 25.8 - - - - SSE 33 39 18 21 1011.9 1011.8 -
23/03:00am 25.5 - - - - SE 33 39 18 21 1012.0 1011.9 -
23/02:30am 25.2 - - - - ESE 32 39 17 21 1012.1 1012.0 -
23/02:00am 25.8 - - - - SE 33 39 18 21 1012.3 1012.2 -
23/01:30am 25.4 - - - - SE 35 41 19 22 1012.3 1012.2 -
23/01:00am 25.7 - - - - SE 35 39 19 21 1012.6 1012.5 -
23/12:30am 25.3 - - - - SE 35 46 19 25 1012.8 1012.7 -
23/12:00am 24.1 - - - - ESE 41 54 22 29 1013.1 1013.0 -
 
Date/Time
EST
Temp
°C
App
Temp
°C
Dew
Point
°C
Rel
Hum
%
Delta-T
°C
Wind Press
QNH
hPa
Press
MSL
hPa
Rain since
9am
mm
Dir  Spd
km/h
Gust
km/h
Spd
kts
Gust
kts
22/11:30pm 24.9 - - - - SE 37 54 20 29 1013.1 1013.0 -
22/11:00pm 25.7 - - - - SSE 35 41 19 22 1013.2 1013.1 -
22/10:30pm 25.0 - - - - SE 39 43 21 23 1013.3 1013.2 -
22/10:00pm 25.3 - - - - SSE 35 41 19 22 1013.4 1013.3 -
22/09:30pm 25.0 - - - - SSE 39 46 21 25 1013.5 1013.4 -
22/09:00pm 25.8 - - - - SSE 39 44 21 24 1013.3 1013.2 -
22/08:30pm 26.2 - - - - SE 37 43 20 23 1013.1 1013.0 -
22/08:00pm 26.0 - - - - SE 35 43 19 23 1013.0 1012.9 -
22/07:49pm 25.2 - - - - SE 39 46 21 25 1012.9 1012.8 -
22/07:30pm 25.3 - - - - SSE 39 46 21 25 1012.8 1012.7 -
22/07:00pm 25.4 - - - - SE 37 44 20 24 1012.2 1012.1 -
22/06:30pm 25.7 - - - - SSE 39 46 21 25 1011.8 1011.7 -
22/06:00pm 26.1 - - - - SSE 41 48 22 26 1011.5 1011.4 -
22/05:30pm 25.7 - - - - SSE 41 50 22 27 1011.1 1011.0 -
22/05:00pm 25.2 - - - - SSE 43 50 23 27 1011.0 1010.9 -
22/04:30pm 25.3 - - - - SSE 44 57 24 31 1010.8 1010.7 -
22/04:00pm 26.0 - - - - SSE 43 50 23 27 1010.6 1010.5 -
22/03:30pm 25.9 - - - - SSE 43 50 23 27 1010.5 1010.4 -
22/03:00pm 25.8 - - - - SSE 43 52 23 28 1010.3 1010.2 -
22/02:30pm 25.9 - - - - S 44 52 24 28 1010.4 1010.3 -
22/02:00pm 25.7 - - - - S 43 50 23 27 1010.7 1010.6 -
22/01:30pm 25.8 - - - - S 43 52 23 28 1010.8 1010.7 -
22/01:00pm 24.9 - - - - SSE 46 56 25 30 1011.0 1010.9 -
22/12:30pm 24.7 - - - - SSE 48 57 26 31 1011.4 1011.3 -
22/12:00pm 25.3 - - - - S 46 52 25 28 1011.9 1011.8 -
22/11:30am 25.0 - - - - S 43 52 23 28 1012.2 1012.1 -
22/11:00am 25.1 - - - - SSE 44 56 24 30 1012.6 1012.5 -
22/10:30am 25.4 - - - - S 43 50 23 27 1012.9 1012.8 -
22/10:00am 25.1 - - - - S 44 57 24 31 1013.1 1013.0 -
22/09:30am 25.2 - - - - SSE 41 50 22 27 1013.2 1013.1 -
22/09:00am 24.9 - - - - S 43 48 23 26 1013.1 1013.0 -
22/08:30am 25.0 - - - - S 44 50 24 27 1013.1 1013.0 -
22/08:00am 24.9 - - - - S 43 50 23 27 1012.9 1012.8 -
22/07:30am 25.2 - - - - S 43 50 23 27 1012.8 1012.7 -
22/07:00am 24.8 - - - - S 44 52 24 28 1012.7 1012.6 -
22/06:30am 24.9 - - - - S 43 50 23 27 1012.4 1012.3 -
22/06:00am 25.0 - - - - S 43 50 23 27 1012.1 1012.0 -
22/05:30am 24.9 - - - - S 43 50 23 27 1011.9 1011.8 -
22/05:00am 24.4 - - - - S 41 48 22 26 1011.8 1011.7 -
22/04:30am 24.4 - - - - S 39 48 21 26 1011.7 1011.6 -
22/04:00am 24.2 - - - - S 44 52 24 28 1011.7 1011.6 -
22/03:30am 23.7 - - - - SSE 46 56 25 30 1011.8 1011.7 -
22/03:00am 23.5 - - - - S 48 57 26 31 1011.8 1011.7 -
22/02:30am 24.6 - - - - S 46 54 25 29 1012.0 1011.9 -
22/02:00am 24.3 - - - - S 46 54 25 29 1012.4 1012.3 -
22/01:30am 25.1 - - - - S 44 52 24 28 1012.5 1012.4 -
22/01:00am 24.9 - - - - S 46 54 25 29 1012.6 1012.5 -
22/12:30am 25.4 - - - - S 44 50 24 27 1012.7 1012.6 -
22/12:00am 24.7 - - - - SSE 44 50 24 27 1012.9 1012.8 -
 
Date/Time
EST
Temp
°C
App
Temp
°C
Dew
Point
°C
Rel
Hum
%
Delta-T
°C
Wind Press
QNH
hPa
Press
MSL
hPa
Rain since
9am
mm
Dir  Spd
km/h
Gust
km/h
Spd
kts
Gust
kts
21/11:30pm 25.3 - - - - SSE 43 50 23 27 1013.1 1013.0 -
21/11:00pm 24.8 - - - - SSE 43 50 23 27 1013.2 1013.1 -
21/10:30pm 25.2 - - - - SSE 39 46 21 25 1013.3 1013.2 -
21/10:00pm 25.2 - - - - SSE 41 46 22 25 1013.3 1013.2 -
21/09:30pm 23.5 - - - - SSE 39 46 21 25 1013.7 1013.6 -
21/09:00pm 23.8 - - - - SSE 41 52 22 28 1013.6 1013.5 -
21/08:30pm 24.1 - - - - SSE 41 48 22 26 1013.6 1013.5 -
21/08:00pm 24.3 - - - - SSE 37 43 20 23 1013.5 1013.4 -
21/07:30pm 24.6 - - - - SSE 37 43 20 23 1013.0 1012.9 -
21/07:00pm 25.1 - - - - S 39 44 21 24 1012.5 1012.4 -
21/06:30pm 24.8 - - - - SSE 39 46 21 25 1012.3 1012.2 -
21/06:00pm 25.8 - - - - SSE 33 37 18 20 1012.0 1011.9 -
21/05:30pm 25.8 - - - - SSE 33 39 18 21 1011.8 1011.7 -
21/05:00pm 25.7 - - - - SE 32 37 17 20 1011.6 1011.5 -
21/04:30pm 25.6 - - - - SE 30 33 16 18 1011.5 1011.4 -
21/04:00pm 25.5 - - - - SE 26 32 14 17 1011.5 1011.4 -
21/03:30pm 25.4 - - - - SSE 24 26 13 14 1011.5 1011.4 -
21/03:00pm 25.6 - - - - SSE 6 20 3 11 1011.4 1011.3 -
21/02:30pm 24.9 - - - - SSE 2 6 1 3 1011.6 1011.5 -
21/02:00pm 24.8 - - - - CALM 0 4 0 2 1011.6 1011.5 -
21/01:30pm 24.2 - - - - E 26 32 14 17 1011.9 1011.8 -
21/01:00pm 24.5 - - - - E 30 33 16 18 1012.2 1012.1 -
21/12:30pm 24.9 - - - - E 30 35 16 19 1012.6 1012.5 -
21/12:00pm 25.3 - - - - ESE 24 28 13 15 1013.1 1013.0 -
21/11:30am 25.1 - - - - ESE 22 28 12 15 1013.5 1013.4 -
21/11:00am 24.6 - - - - SE 20 26 11 14 1013.8 1013.7 -
21/10:30am 24.5 - - - - SE 24 28 13 15 1014.1 1014.0 -
21/10:00am 24.4 - - - - SE 30 33 16 18 1014.2 1014.1 -
21/09:30am 24.6 - - - - SE 37 44 20 24 1014.3 1014.2 -
21/09:23am 25.4 - - - - SSE 35 44 19 24 1014.1 1014.0 -
21/09:00am 23.6 - - - - ENE 19 26 10 14 1014.4 1014.3 -
21/08:30am 23.2 - - - - E 22 32 12 17 1014.3 1014.2 -
21/08:00am 25.1 - - - - S 32 35 17 19 1013.8 1013.7 -
21/07:30am 24.3 - - - - S 33 37 18 20 1013.5 1013.4 -
21/07:00am 24.8 - - - - S 33 39 18 21 1013.4 1013.3 -
21/06:30am 24.5 - - - - S 33 39 18 21 1013.3 1013.2 -
21/06:00am 24.4 - - - - SSE 32 37 17 20 1013.1 1013.0 -
21/05:30am 24.4 - - - - SSE 26 32 14 17 1012.9 1012.8 -
21/05:00am 23.9 - - - - SSE 41 46 22 25 1012.7 1012.6 -
21/04:30am 24.1 - - - - SSE 30 33 16 18 1012.9 1012.8 -
21/04:00am 23.4 - - - - SE 35 39 19 21 1012.6 1012.5 -
21/03:30am 23.8 - - - - SSE 41 48 22 26 1012.7 1012.6 -
21/03:29am 23.9 - - - - SSE 41 48 22 26 1012.6 1012.5 -
21/03:00am 24.6 - - - - S 39 44 21 24 1012.6 1012.5 -
21/02:30am 24.3 - - - - S 44 50 24 27 1012.7 1012.6 -
21/02:00am 25.0 - - - - S 37 43 20 23 1013.0 1012.9 -
21/01:30am 24.7 - - - - S 39 44 21 24 1013.2 1013.1 -
21/01:00am 23.7 - - - - SE 35 43 19 23 1013.4 1013.3 -
21/12:45am 23.5 - - - - SSE 35 46 19 25 1013.4 1013.3 -
21/12:30am 23.9 - - - - SE 41 48 22 26 1013.7 1013.6 -
21/12:27am 23.8 - - - - SSE 39 48 21 26 1013.5 1013.4 -
21/12:00am 25.3 - - - - S 39 44 21 24 1013.5 1013.4 -
 
Date/Time
EST
Temp
°C
App
Temp
°C
Dew
Point
°C
Rel
Hum
%
Delta-T
°C
Wind Press
QNH
hPa
Press
MSL
hPa
Rain since
9am
mm
Dir  Spd
km/h
Gust
km/h
Spd
kts
Gust
kts
20/11:30pm 26.0 - - - - S 35 39 19 21 1013.7 1013.6 -
20/11:00pm 26.3 - - - - S 32 35 17 19 1014.0 1013.9 -
20/10:30pm 25.9 - - - - S 32 35 17 19 1014.0 1013.9 -
20/10:00pm 26.3 - - - - SSE 28 32 15 17 1014.4 1014.3 -
20/09:30pm 26.3 - - - - SSE 28 32 15 17 1014.5 1014.4 -
20/09:00pm 26.3 - - - - SSE 28 32 15 17 1014.6 1014.5 -
20/08:30pm 26.2 - - - - SSE 28 32 15 17 1014.5 1014.4 -
20/08:00pm 26.2 - - - - S 32 37 17 20 1014.3 1014.2 -
20/07:30pm 26.2 - - - - S 30 35 16 19 1014.0 1013.9 -

Other formats

Comma delimited format used in spreadsheet applications
http://www.bom.gov.au/fwo/IDQ60801/IDQ60801.94290.axf

JavaScript Object Notation format (JSON) in row-major order
http://www.bom.gov.au/fwo/IDQ60801/IDQ60801.94290.json

Data quality

Most of these data are generated automatically and are frequently updated. Quality checks on data are not normally performed. It is possible for incorrect values to appear. Refer to information at About Latest Weather Observations and please check the disclaimer before using these data.